Terminal Aerodrome Forecast
Issued by NWS Greer, SC

Home | Current Version | Previous Version | Text Only | Print | Product List | Glossary On
Versions: 1 2 3 4 5 6 7 8 9 10 11 12 13 14 15 16 17 18 19 20 21 22 23 24 25 26 27 28 29 30 31 32 33 34 35 36
000
FTUS42 KGSP 201700
TAFAVL
TAF
KAVL 201740Z 2018/2118 VRB04KT P6SM VCTS FEW045CB BKN250
     FM210300 00000KT P6SM SCT150
     FM210800 00000KT 3SM BR SCT160
     FM211300 33003KT P6SM SCT050 SCT200=

USA.gov is the U.S. government's official web portal to all federal, state and local government web resources and services.